createdAt,value
2017-05-21T00:00:18.437Z,0
2017-05-21T00:01:33.846Z,0
2017-05-21T00:02:47.535Z,0
2017-05-21T00:04:01.844Z,0
2017-05-21T00:05:14.613Z,0
2017-05-21T00:07:00.839Z,0
2017-05-21T00:08:16.224Z,0
2017-05-21T00:09:31.809Z,0
2017-05-21T00:10:47.155Z,0
2017-05-21T00:12:02.714Z,0
2017-05-21T00:13:18.038Z,0
2017-05-21T00:14:33.281Z,0
2017-05-21T00:15:48.618Z,0
2017-05-21T00:17:03.990Z,0
2017-05-21T00:18:17.927Z,0
2017-05-21T00:19:32.252Z,0
2017-05-21T00:20:47.689Z,0
2017-05-21T00:22:01.737Z,0
2017-05-21T00:23:15.860Z,0
2017-05-21T00:24:28.741Z,0
2017-05-21T00:25:42.789Z,0
2017-05-21T00:26:58.168Z,0
2017-05-21T00:28:13.143Z,0
2017-05-21T00:29:28.794Z,0
2017-05-21T00:30:41.673Z,0
2017-05-21T00:31:56.688Z,0
2017-05-21T00:33:10.757Z,0
2017-05-21T00:34:26.103Z,0
2017-05-21T00:35:41.702Z,0
2017-05-21T00:36:57.061Z,0
2017-05-21T00:38:12.390Z,0
2017-05-21T00:39:26.452Z,0
2017-05-21T00:40:40.720Z,0
2017-05-21T00:41:54.822Z,0
2017-05-21T00:43:08.870Z,0
2017-05-21T00:44:24.217Z,0
2017-05-21T00:45:39.824Z,0
2017-05-21T00:46:53.734Z,0
2017-05-21T00:48:09.165Z,0
2017-05-21T00:49:24.498Z,0
2017-05-21T00:50:40.295Z,0
2017-05-21T00:51:55.292Z,0
2017-05-21T00:53:10.688Z,0
2017-05-21T00:54:26.011Z,0
2017-05-21T00:55:41.571Z,0
2017-05-21T00:56:55.608Z,0
2017-05-21T00:58:10.931Z,0
2017-05-21T00:59:24.849Z,0
2017-05-21T01:00:40.481Z,0
2017-05-21T01:01:53.098Z,0
2017-05-21T01:03:05.999Z,0
2017-05-21T01:04:21.355Z,0
2017-05-21T01:05:36.909Z,0
2017-05-21T01:06:50.833Z,0
2017-05-21T01:08:04.879Z,0
2017-05-21T01:09:20.214Z,0
2017-05-21T01:10:35.751Z,0
2017-05-21T01:11:51.103Z,0
2017-05-21T01:13:06.431Z,0
2017-05-21T01:14:19.182Z,0
2017-05-21T01:15:34.511Z,0
2017-05-21T01:16:48.872Z,0
2017-05-21T01:18:01.515Z,0
2017-05-21T01:19:16.889Z,0
2017-05-21T01:20:31.874Z,0
2017-05-21T01:21:47.515Z,0
2017-05-21T01:23:01.554Z,0
2017-05-21T01:24:15.611Z,0
2017-05-21T01:25:31.255Z,0
2017-05-21T01:26:46.827Z,0
2017-05-21T01:27:58.344Z,0
2017-05-21T01:29:13.915Z,0
2017-05-21T01:30:29.254Z,0
2017-05-21T01:31:44.913Z,0
2017-05-21T01:32:59.005Z,0
2017-05-21T01:34:12.918Z,0
2017-05-21T01:35:27.193Z,0
2017-05-21T01:36:42.807Z,0
2017-05-21T01:37:58.204Z,0
2017-05-21T01:39:13.776Z,0
2017-05-21T01:40:29.176Z,0
2017-05-21T01:41:44.717Z,0
2017-05-21T01:43:00.259Z,0
2017-05-21T01:44:14.447Z,0
2017-05-21T01:45:30.010Z,0
2017-05-21T01:47:16.298Z,0
2017-05-21T01:48:30.369Z,0
2017-05-21T01:49:44.664Z,0
2017-05-21T01:50:58.825Z,0
2017-05-21T01:52:13.082Z,0
2017-05-21T01:53:27.252Z,0
2017-05-21T01:54:41.295Z,0
2017-05-21T01:55:56.574Z,0
2017-05-21T01:57:10.807Z,0
2017-05-21T01:58:25.113Z,0
2017-05-21T01:59:40.522Z,0
2017-05-21T02:00:54.583Z,0
2017-05-21T02:02:09.948Z,0
2017-05-21T02:03:25.484Z,0
2017-05-21T02:04:39.550Z,0
2017-05-21T02:05:53.488Z,0
2017-05-21T02:07:08.914Z,0
2017-05-21T02:08:24.581Z,0
2017-05-21T02:09:39.923Z,0
2017-05-21T02:10:55.290Z,0
2017-05-21T02:12:10.636Z,0
2017-05-21T02:13:26.263Z,0
2017-05-21T02:14:41.698Z,0
2017-05-21T02:15:57.038Z,0
2017-05-21T02:17:12.707Z,0
2017-05-21T02:18:27.021Z,0
2017-05-21T02:19:41.065Z,0
2017-05-21T02:20:56.396Z,0
2017-05-21T02:22:10.076Z,0
2017-05-21T02:23:25.930Z,0
2017-05-21T02:24:41.325Z,0
2017-05-21T02:25:56.655Z,0
2017-05-21T02:27:12.326Z,0
2017-05-21T02:28:27.923Z,0
2017-05-21T02:29:42.005Z,0
2017-05-21T02:30:57.340Z,4
2017-05-21T02:32:11.437Z,4
2017-05-21T02:33:27.118Z,0
2017-05-21T02:34:42.443Z,4
2017-05-21T02:35:56.400Z,4
2017-05-21T02:37:11.721Z,4
2017-05-21T02:38:25.960Z,4
2017-05-21T02:39:40.232Z,4
2017-05-21T02:40:54.286Z,8
2017-05-21T02:42:09.634Z,12
2017-05-21T02:43:25.004Z,8
2017-05-21T02:44:38.006Z,12
2017-05-21T02:45:53.333Z,12
2017-05-21T02:47:07.459Z,16
2017-05-21T02:48:22.814Z,20
2017-05-21T02:49:37.048Z,24
2017-05-21T02:50:50.993Z,28
2017-05-21T02:52:06.331Z,32
2017-05-21T02:53:20.059Z,40
2017-05-21T02:54:35.601Z,44
2017-05-21T02:55:50.966Z,48
2017-05-21T02:57:06.321Z,60
2017-05-21T02:58:21.655Z,68
2017-05-21T02:59:35.949Z,80
2017-05-21T03:00:51.281Z,88
2017-05-21T03:02:06.621Z,100
2017-05-21T03:03:20.727Z,116
2017-05-21T03:04:36.410Z,132
2017-05-21T03:05:51.766Z,148
2017-05-21T03:07:07.125Z,168
2017-05-21T03:08:22.475Z,188
2017-05-21T03:09:38.268Z,208
2017-05-21T03:10:53.588Z,228
2017-05-21T03:12:08.962Z,252
2017-05-21T03:13:24.309Z,280
2017-05-21T03:14:40.078Z,304
2017-05-21T03:15:54.137Z,332
2017-05-21T03:17:09.100Z,360
2017-05-21T03:18:24.371Z,388
2017-05-21T03:19:39.961Z,420
2017-05-21T03:20:54.065Z,452
2017-05-21T03:22:08.141Z,484
2017-05-21T03:23:23.474Z,516
2017-05-21T03:24:37.726Z,552
2017-05-21T03:25:51.964Z,584
2017-05-21T03:27:04.380Z,624
2017-05-21T03:28:18.449Z,660
2017-05-21T03:29:33.933Z,700
2017-05-21T03:30:49.931Z,740
2017-05-21T03:32:05.257Z,776
2017-05-21T03:33:20.317Z,816
2017-05-21T03:34:35.661Z,856
2017-05-21T03:35:51.349Z,896
2017-05-21T03:37:06.677Z,936
2017-05-21T03:38:22.101Z,976
2017-05-21T03:39:37.663Z,1020
2017-05-21T03:40:53.205Z,1064
2017-05-21T03:42:07.250Z,1104
2017-05-21T03:43:22.644Z,1148
2017-05-21T03:44:37.990Z,1192
2017-05-21T03:46:24.428Z,1252
2017-05-21T03:47:38.658Z,1296
2017-05-21T03:48:52.702Z,1340
2017-05-21T03:50:08.136Z,1384
2017-05-21T03:51:22.384Z,1428
2017-05-21T03:52:37.748Z,1472
2017-05-21T03:53:53.138Z,1516
2017-05-21T03:55:05.757Z,1560
2017-05-21T03:56:18.766Z,1604
2017-05-21T03:57:34.102Z,1648
2017-05-21T03:58:45.546Z,1692
2017-05-21T03:59:59.582Z,1732
2017-05-21T04:01:14.913Z,1776
2017-05-21T04:02:30.528Z,1824
2017-05-21T04:03:44.721Z,1864
2017-05-21T04:05:00.148Z,1908
2017-05-21T04:06:12.932Z,1948
2017-05-21T04:07:28.461Z,1988
2017-05-21T04:08:41.078Z,2032
2017-05-21T04:09:55.123Z,2072
2017-05-21T04:11:09.202Z,2116
2017-05-21T04:12:24.843Z,2160
2017-05-21T04:13:38.952Z,2204
2017-05-21T04:14:53.086Z,2248
2017-05-21T04:16:05.732Z,2296
2017-05-21T04:17:21.100Z,2332
2017-05-21T04:19:06.079Z,2388
2017-05-21T04:20:20.236Z,2440
2017-05-21T04:21:34.137Z,2488
2017-05-21T04:22:48.306Z,2532
2017-05-21T04:24:03.671Z,2572
2017-05-21T04:25:18.992Z,2612
2017-05-21T04:27:05.243Z,2672
2017-05-21T04:28:20.424Z,2720
2017-05-21T04:29:33.171Z,2764
2017-05-21T04:30:48.612Z,2804
2017-05-21T04:32:02.647Z,2848
2017-05-21T04:33:18.185Z,2896
2017-05-21T04:34:29.659Z,2940
2017-05-21T04:35:45.032Z,2984
2017-05-21T04:36:57.805Z,3032
2017-05-21T04:38:42.930Z,3100
2017-05-21T04:39:57.031Z,3148
2017-05-21T04:41:12.499Z,3188
2017-05-21T04:42:26.581Z,3244
2017-05-21T04:43:42.252Z,3288
2017-05-21T04:44:57.584Z,3336
2017-05-21T04:46:12.921Z,3376
2017-05-21T04:47:28.271Z,3424
2017-05-21T04:48:43.829Z,3468
2017-05-21T04:49:59.392Z,3524
2017-05-21T04:51:12.094Z,3572
2017-05-21T04:52:26.162Z,3620
2017-05-21T04:53:39.200Z,3640
2017-05-21T04:54:54.603Z,3676
2017-05-21T04:56:09.924Z,3712
2017-05-21T04:57:25.495Z,3752
2017-05-21T04:58:39.754Z,3800
2017-05-21T04:59:53.797Z,3832
2017-05-21T05:01:07.854Z,3872
2017-05-21T05:02:21.969Z,3908
2017-05-21T05:03:37.288Z,3940
2017-05-21T05:04:51.585Z,3972
2017-05-21T05:06:06.973Z,4004
2017-05-21T05:07:19.923Z,4036
2017-05-21T05:08:33.967Z,4076
2017-05-21T05:09:49.613Z,4132
2017-05-21T05:11:04.957Z,4188
2017-05-21T05:12:19.942Z,4228
2017-05-21T05:13:35.301Z,4260
2017-05-21T05:14:50.866Z,4292
2017-05-21T05:16:05.163Z,4324
2017-05-21T05:17:19.320Z,4368
2017-05-21T05:18:32.075Z,4400
2017-05-21T05:19:46.336Z,4428
2017-05-21T05:21:01.700Z,4456
2017-05-21T05:22:17.054Z,4496
2017-05-21T05:23:32.374Z,4528
2017-05-21T05:24:48.312Z,4564
2017-05-21T05:26:02.040Z,4596
2017-05-21T05:27:16.081Z,4644
2017-05-21T05:28:28.952Z,4684
2017-05-21T05:29:42.872Z,4728
2017-05-21T05:30:55.893Z,4772
2017-05-21T05:32:11.320Z,4816
2017-05-21T05:33:26.714Z,4860
2017-05-21T05:34:40.848Z,4896
2017-05-21T05:35:56.460Z,4928
2017-05-21T05:37:10.566Z,4968
2017-05-21T05:38:21.920Z,4988
2017-05-21T05:39:37.341Z,5008
2017-05-21T05:40:52.942Z,5028
2017-05-21T05:42:06.873Z,5084
2017-05-21T05:43:22.437Z,5120
2017-05-21T05:44:34.036Z,5132
2017-05-21T05:46:19.136Z,5160
2017-05-21T05:47:34.462Z,5208
2017-05-21T05:48:49.790Z,5260
2017-05-21T05:50:05.180Z,5308
2017-05-21T05:51:19.517Z,5368
2017-05-21T05:52:32.204Z,5400
2017-05-21T05:53:46.284Z,5416
2017-05-21T05:55:01.664Z,5436
2017-05-21T05:56:15.764Z,5468
2017-05-21T05:57:31.308Z,5492
2017-05-21T05:58:46.680Z,5528
2017-05-21T06:00:02.043Z,5548
2017-05-21T06:01:17.378Z,5580
2017-05-21T06:02:32.979Z,5620
2017-05-21T06:03:48.349Z,5640
2017-05-21T06:05:03.314Z,5652
2017-05-21T06:06:18.776Z,5684
2017-05-21T06:07:34.322Z,5708
2017-05-21T06:08:49.711Z,5724
2017-05-21T06:10:05.052Z,5760
2017-05-21T06:11:19.152Z,5796
2017-05-21T06:12:34.336Z,5820
2017-05-21T06:13:49.672Z,5864
2017-05-21T06:15:05.228Z,5884
2017-05-21T06:16:20.832Z,5916
2017-05-21T06:17:36.425Z,5928
2017-05-21T06:18:51.775Z,5956
2017-05-21T06:20:05.763Z,5976
2017-05-21T06:21:21.104Z,6004
2017-05-21T06:22:36.722Z,6040
2017-05-21T06:23:52.236Z,6084
2017-05-21T06:25:07.572Z,6128
2017-05-21T06:26:22.678Z,6172
2017-05-21T06:27:38.462Z,6180
2017-05-21T06:28:52.477Z,6188
2017-05-21T06:30:07.842Z,6196
2017-05-21T06:31:23.235Z,6208
2017-05-21T06:32:38.808Z,6232
2017-05-21T06:33:54.390Z,6204
2017-05-21T06:35:08.076Z,6256
2017-05-21T06:36:23.432Z,6256
2017-05-21T06:37:38.965Z,6352
2017-05-21T06:38:52.874Z,6428
2017-05-21T06:40:08.259Z,6452
2017-05-21T06:41:23.602Z,6488
2017-05-21T06:42:38.105Z,6536
2017-05-21T06:43:52.222Z,6596
2017-05-21T06:45:07.592Z,6652
2017-05-21T06:46:22.572Z,6708
2017-05-21T06:47:38.210Z,6764
2017-05-21T06:48:53.550Z,6804
2017-05-21T06:50:07.470Z,6844
2017-05-21T06:51:22.831Z,6884
2017-05-21T06:52:37.080Z,6928
2017-05-21T06:53:52.434Z,6984
2017-05-21T06:55:06.484Z,7032
2017-05-21T06:56:20.547Z,7076
2017-05-21T06:57:34.878Z,7088
2017-05-21T06:58:50.226Z,7112
2017-05-21T07:00:05.811Z,7152
2017-05-21T07:01:19.864Z,7180
2017-05-21T07:02:35.424Z,7228
2017-05-21T07:03:50.877Z,7276
2017-05-21T07:05:06.218Z,7300
2017-05-21T07:06:21.565Z,7332
2017-05-21T07:07:37.091Z,7388
2017-05-21T07:08:49.864Z,7476
2017-05-21T07:10:03.963Z,7540
2017-05-21T07:11:19.301Z,7608
2017-05-21T07:13:05.748Z,7664
2017-05-21T07:14:19.844Z,7704
2017-05-21T07:16:04.800Z,7848
2017-05-21T07:17:20.144Z,7904
2017-05-21T07:18:35.728Z,7924
2017-05-21T07:19:51.079Z,7956
2017-05-21T07:21:06.408Z,8008
2017-05-21T07:22:21.772Z,8028
2017-05-21T07:23:35.913Z,8064
2017-05-21T07:24:51.260Z,8004
2017-05-21T07:26:05.312Z,8080
2017-05-21T07:27:20.679Z,8164
2017-05-21T07:28:34.981Z,8136
2017-05-21T07:29:50.359Z,7952
2017-05-21T07:31:05.697Z,7968
2017-05-21T07:32:21.130Z,8212
2017-05-21T07:33:36.295Z,8288
2017-05-21T07:34:50.337Z,8384
2017-05-21T07:36:04.405Z,8600
2017-05-21T07:37:18.444Z,8720
2017-05-21T07:38:32.753Z,8840
2017-05-21T07:39:48.215Z,8996
2017-05-21T07:41:02.284Z,9196
2017-05-21T07:42:17.682Z,9388
2017-05-21T07:43:31.787Z,9348
2017-05-21T07:44:47.369Z,9372
2017-05-21T07:46:01.425Z,9308
2017-05-21T07:47:15.496Z,9832
2017-05-21T07:48:28.261Z,10036
2017-05-21T07:49:42.344Z,10332
2017-05-21T07:50:56.402Z,10448
2017-05-21T07:52:11.972Z,10092
2017-05-21T07:53:26.095Z,10188
2017-05-21T07:54:41.771Z,10344
2017-05-21T07:55:55.830Z,10352
2017-05-21T07:57:10.120Z,10312
2017-05-21T07:58:25.475Z,10192
2017-05-21T07:59:38.298Z,10028
2017-05-21T08:00:53.731Z,9936
2017-05-21T08:02:09.081Z,10148
2017-05-21T08:03:24.457Z,10412
2017-05-21T08:04:40.000Z,10536
2017-05-21T08:05:55.340Z,10640
2017-05-21T08:07:09.437Z,10564
2017-05-21T08:08:24.831Z,10344
2017-05-21T08:09:39.042Z,10456
2017-05-21T08:10:53.196Z,10468
2017-05-21T08:12:08.566Z,10552
2017-05-21T08:13:23.941Z,10540
2017-05-21T08:14:37.990Z,10940
2017-05-21T08:15:50.957Z,10964
2017-05-21T08:17:03.344Z,11148
2017-05-21T08:18:18.942Z,11232
2017-05-21T08:19:34.347Z,11032
2017-05-21T08:20:48.667Z,10956
2017-05-21T08:22:02.988Z,11004
2017-05-21T08:23:18.352Z,11196
2017-05-21T08:24:33.816Z,11892
2017-05-21T08:25:48.268Z,12836
2017-05-21T08:27:03.633Z,13616
2017-05-21T08:28:19.003Z,14564
2017-05-21T08:29:34.374Z,16276
2017-05-21T08:30:48.634Z,34208
2017-05-21T08:32:04.023Z,66880
2017-05-21T08:33:19.433Z,72512
2017-05-21T08:34:32.201Z,86944
2017-05-21T08:35:47.761Z,80224
2017-05-21T08:37:03.140Z,81920
2017-05-21T08:38:18.593Z,84352
2017-05-21T08:39:32.797Z,72064
2017-05-21T08:40:48.371Z,64896
2017-05-21T08:42:04.219Z,57376
2017-05-21T08:43:19.582Z,56640
2017-05-21T08:44:33.867Z,15580
2017-05-21T08:45:47.991Z,62752
2017-05-21T08:47:02.071Z,73856
2017-05-21T08:48:17.686Z,73376
2017-05-21T08:49:30.597Z,62272
2017-05-21T08:50:43.358Z,82752
2017-05-21T08:51:57.837Z,80800
2017-05-21T08:53:12.027Z,79904
2017-05-21T08:54:25.957Z,99456
2017-05-21T08:55:41.318Z,91840
2017-05-21T08:56:56.955Z,51456
2017-05-21T08:58:11.958Z,65184
2017-05-21T08:59:27.449Z,74720
2017-05-21T09:00:42.813Z,90464
2017-05-21T09:01:55.805Z,93280
2017-05-21T09:03:11.163Z,94464
2017-05-21T09:04:26.667Z,92384
2017-05-21T09:05:42.020Z,75616
2017-05-21T09:06:56.310Z,102432
2017-05-21T09:08:08.971Z,118016
2017-05-21T09:09:23.171Z,91712
2017-05-21T09:10:37.278Z,68384
2017-05-21T09:11:52.627Z,79680
2017-05-21T09:13:08.216Z,83072
2017-05-21T09:14:23.830Z,70304
2017-05-21T09:15:39.279Z,77568
2017-05-21T09:16:54.891Z,96896
2017-05-21T09:18:10.088Z,95296
2017-05-21T09:19:25.489Z,82912
2017-05-21T09:20:41.092Z,41472
2017-05-21T09:21:56.600Z,21504
2017-05-21T09:23:11.254Z,96768
2017-05-21T09:24:25.319Z,106688
2017-05-21T09:25:37.983Z,102368
2017-05-21T09:26:53.366Z,35808
2017-05-21T09:28:07.721Z,14572
2017-05-21T09:29:23.107Z,13704
2017-05-21T09:30:38.481Z,93024
2017-05-21T09:31:52.545Z,76512
2017-05-21T09:33:06.886Z,98592
2017-05-21T09:34:22.271Z,125440
2017-05-21T09:35:37.692Z,116896
2017-05-21T09:36:53.357Z,107008
2017-05-21T09:38:08.964Z,107104
2017-05-21T09:39:23.103Z,21184
2017-05-21T09:40:37.694Z,24960
2017-05-21T09:41:51.625Z,43520
2017-05-21T09:43:05.955Z,25632
2017-05-21T09:44:20.043Z,29888
2017-05-21T09:45:35.517Z,20448
2017-05-21T09:46:50.856Z,23008
2017-05-21T09:48:06.438Z,81792
2017-05-21T09:49:21.421Z,91808
2017-05-21T09:50:36.777Z,100160
2017-05-21T09:51:52.189Z,99936
2017-05-21T09:53:07.749Z,100128
2017-05-21T09:54:21.766Z,34240
2017-05-21T09:55:37.214Z,71328
2017-05-21T09:56:51.278Z,84896
2017-05-21T09:58:06.910Z,101408
2017-05-21T09:59:22.290Z,25536
2017-05-21T10:00:36.601Z,61856
2017-05-21T10:01:51.978Z,114432
2017-05-21T10:03:07.557Z,110592
2017-05-21T10:04:21.639Z,118304
2017-05-21T10:05:36.998Z,123168
2017-05-21T10:06:50.924Z,110944
2017-05-21T10:08:05.210Z,99392
2017-05-21T10:09:20.576Z,117984
2017-05-21T10:10:35.947Z,132736
2017-05-21T10:12:22.157Z,109088
2017-05-21T10:13:37.854Z,96288
2017-05-21T10:14:51.951Z,102432
2017-05-21T10:16:07.369Z,124352
2017-05-21T10:17:22.825Z,136032
2017-05-21T10:18:37.159Z,123936
2017-05-21T10:19:52.593Z,95168
2017-05-21T10:21:07.995Z,91200
2017-05-21T10:22:23.475Z,104160
2017-05-21T10:23:37.849Z,118464
2017-05-21T10:24:53.232Z,109696
2017-05-21T10:26:07.316Z,97408
2017-05-21T10:27:19.988Z,92480
2017-05-21T10:28:35.597Z,18272
2017-05-21T10:29:50.970Z,18240
2017-05-21T10:31:06.353Z,20640
2017-05-21T10:32:21.811Z,22656
2017-05-21T10:33:37.462Z,25920
2017-05-21T10:34:51.532Z,80288
2017-05-21T10:36:06.898Z,44928
2017-05-21T10:37:22.259Z,25056
2017-05-21T10:38:36.409Z,23648
2017-05-21T10:39:52.012Z,34048
2017-05-21T10:41:07.620Z,38016
2017-05-21T10:42:23.029Z,53504
2017-05-21T10:43:37.102Z,101088
2017-05-21T10:44:52.728Z,102656
2017-05-21T10:46:08.099Z,83968
2017-05-21T10:47:23.519Z,141792
2017-05-21T10:48:37.689Z,154880
2017-05-21T10:49:53.261Z,162240
2017-05-21T10:51:07.382Z,142368
2017-05-21T10:52:21.338Z,113696
2017-05-21T10:53:35.437Z,60704
2017-05-21T10:54:49.677Z,18624
2017-05-21T10:56:05.075Z,17984
2017-05-21T10:57:19.225Z,19808
2017-05-21T10:58:34.606Z,23648
2017-05-21T10:59:48.879Z,70048
2017-05-21T11:01:04.272Z,117344
2017-05-21T11:02:18.496Z,45696
2017-05-21T11:03:33.982Z,48992
2017-05-21T11:04:49.551Z,24384
2017-05-21T11:06:04.918Z,21312
2017-05-21T11:07:20.593Z,19776
2017-05-21T11:08:35.985Z,19296
2017-05-21T11:09:51.792Z,19840
2017-05-21T11:11:06.561Z,21152
2017-05-21T11:12:22.328Z,20480
2017-05-21T11:13:37.709Z,21792
2017-05-21T11:14:53.134Z,21632
2017-05-21T11:16:08.553Z,21696
2017-05-21T11:17:22.599Z,53504
2017-05-21T11:18:37.997Z,28128
2017-05-21T11:19:53.412Z,138272
2017-05-21T11:21:08.767Z,31200
2017-05-21T11:22:21.755Z,94080
2017-05-21T11:23:35.835Z,120032
2017-05-21T11:24:51.318Z,157792
2017-05-21T11:26:06.717Z,149472
2017-05-21T11:27:22.285Z,114304
2017-05-21T11:28:37.929Z,106272
2017-05-21T11:29:53.551Z,133888
2017-05-21T11:31:07.548Z,20992
2017-05-21T11:32:20.490Z,18336
2017-05-21T11:33:34.613Z,18432
2017-05-21T11:34:49.992Z,18080
2017-05-21T11:36:05.360Z,17984
2017-05-21T11:37:19.690Z,18720
2017-05-21T11:38:32.492Z,20576
2017-05-21T11:39:46.747Z,21600
2017-05-21T11:41:02.108Z,22912
2017-05-21T11:42:17.728Z,28256
2017-05-21T11:43:30.615Z,99648
2017-05-21T11:44:46.004Z,128352
2017-05-21T11:46:00.120Z,109088
2017-05-21T11:47:15.515Z,91424
2017-05-21T11:48:31.083Z,117504
2017-05-21T11:49:46.936Z,152864
2017-05-21T11:51:01.072Z,153280
2017-05-21T11:52:16.467Z,107968
2017-05-21T11:53:32.061Z,94944
2017-05-21T11:54:47.459Z,96896
2017-05-21T11:56:02.912Z,91840
2017-05-21T11:57:18.326Z,99040
2017-05-21T11:58:33.903Z,24160
2017-05-21T11:59:48.074Z,25376
2017-05-21T12:01:03.480Z,64480
2017-05-21T12:02:18.910Z,20608
2017-05-21T12:03:34.585Z,17024
2017-05-21T12:04:49.961Z,15292
2017-05-21T12:06:03.913Z,14448
2017-05-21T12:07:19.312Z,13856
2017-05-21T12:08:34.950Z,13468
2017-05-21T12:09:50.314Z,13156
2017-05-21T12:11:04.399Z,13236
2017-05-21T12:12:19.796Z,13660
2017-05-21T12:13:34.118Z,14540
2017-05-21T12:14:48.192Z,15432
2017-05-21T12:16:03.594Z,16320
2017-05-21T12:17:18.969Z,18624
2017-05-21T12:18:34.538Z,20000
2017-05-21T12:19:50.173Z,18336
2017-05-21T12:21:04.266Z,17568
2017-05-21T12:22:19.956Z,16320
2017-05-21T12:23:35.689Z,16000
2017-05-21T12:24:51.063Z,15168
2017-05-21T12:26:06.521Z,14112
2017-05-21T12:27:20.507Z,14104
2017-05-21T12:28:34.798Z,14488
2017-05-21T12:29:50.406Z,15312
2017-05-21T12:31:06.029Z,16320
2017-05-21T12:32:22.061Z,18272
2017-05-21T12:33:38.026Z,53920
2017-05-21T12:34:50.990Z,45984
2017-05-21T12:36:06.352Z,23872
2017-05-21T12:37:21.883Z,29536
2017-05-21T12:38:36.173Z,21760
2017-05-21T12:39:51.681Z,20832
2017-05-21T12:41:05.764Z,20928
2017-05-21T12:42:19.780Z,20768
2017-05-21T12:43:35.364Z,20032
2017-05-21T12:44:49.306Z,19648
2017-05-21T12:46:03.462Z,20000
2017-05-21T12:47:17.635Z,20576
2017-05-21T12:48:33.013Z,18784
2017-05-21T12:49:48.566Z,17600
2017-05-21T12:51:03.951Z,17376
2017-05-21T12:52:50.241Z,16832
2017-05-21T12:54:06.091Z,16256
2017-05-21T12:55:21.473Z,15904
2017-05-21T12:56:34.142Z,15936
2017-05-21T12:57:48.082Z,16672
2017-05-21T12:59:03.828Z,18368
2017-05-21T13:00:17.915Z,19392
2017-05-21T13:02:04.147Z,20544
2017-05-21T13:03:19.512Z,19392
2017-05-21T13:04:33.834Z,18080
2017-05-21T13:05:49.271Z,17888
2017-05-21T13:07:04.670Z,17280
2017-05-21T13:08:20.026Z,17760
2017-05-21T13:09:35.734Z,20960
2017-05-21T13:10:51.091Z,21280
2017-05-21T13:12:05.162Z,72768
2017-05-21T13:13:20.513Z,55104
2017-05-21T13:14:34.796Z,37056
2017-05-21T13:15:50.197Z,28416
2017-05-21T13:17:05.574Z,29472
2017-05-21T13:18:20.958Z,27424
2017-05-21T13:19:35.324Z,29920
2017-05-21T13:20:50.714Z,56672
2017-05-21T13:22:06.097Z,74752
2017-05-21T13:23:20.187Z,37056
2017-05-21T13:24:33.040Z,65696
2017-05-21T13:25:48.407Z,94592
2017-05-21T13:27:03.850Z,65632
2017-05-21T13:28:18.029Z,88640
2017-05-21T13:29:33.599Z,128160
2017-05-21T13:30:47.733Z,125568
2017-05-21T13:32:02.795Z,82976
2017-05-21T13:33:18.177Z,62048
2017-05-21T13:34:33.959Z,98528
2017-05-21T13:35:48.063Z,140448
2017-05-21T13:37:03.553Z,130464
2017-05-21T13:38:16.445Z,92288
2017-05-21T13:39:32.050Z,51520
2017-05-21T13:40:46.116Z,47488
2017-05-21T13:42:00.055Z,88224
2017-05-21T13:43:14.154Z,105792
2017-05-21T13:44:29.522Z,69664
2017-05-21T13:45:45.333Z,49856
2017-05-21T13:46:59.310Z,85600
2017-05-21T13:48:14.727Z,109088
2017-05-21T13:49:28.797Z,95488
2017-05-21T13:50:43.062Z,83648
2017-05-21T13:51:58.506Z,80992
2017-05-21T13:53:13.899Z,90816
2017-05-21T13:54:28.915Z,96736
2017-05-21T13:55:44.657Z,82144
2017-05-21T13:57:00.064Z,72480
2017-05-21T13:58:15.623Z,78336
2017-05-21T13:59:30.009Z,18048
2017-05-21T14:00:45.592Z,32288
2017-05-21T14:01:59.404Z,76000
2017-05-21T14:03:14.784Z,75776
2017-05-21T14:04:30.303Z,91456
2017-05-21T14:05:45.595Z,106720
2017-05-21T14:06:59.597Z,90784
2017-05-21T14:08:13.714Z,61440
2017-05-21T14:09:29.114Z,66464
2017-05-21T14:10:44.941Z,97504
2017-05-21T14:11:57.783Z,103456
2017-05-21T14:13:13.179Z,81568
2017-05-21T14:14:28.539Z,65632
2017-05-21T14:15:42.891Z,65056
2017-05-21T14:16:58.350Z,79456
2017-05-21T14:18:13.759Z,93536
2017-05-21T14:19:28.119Z,92992
2017-05-21T14:20:43.758Z,69824
2017-05-21T14:21:59.365Z,59008
2017-05-21T14:23:12.170Z,76448
2017-05-21T14:24:27.638Z,95616
2017-05-21T14:25:42.247Z,86048
2017-05-21T14:26:57.757Z,70176
2017-05-21T14:28:13.128Z,72960
2017-05-21T14:29:28.505Z,73568
2017-05-21T14:30:44.177Z,61760
2017-05-21T14:31:59.558Z,68512
2017-05-21T14:33:14.938Z,90080
2017-05-21T14:34:30.360Z,83616
2017-05-21T14:35:46.035Z,54528
2017-05-21T14:37:01.592Z,51456
2017-05-21T14:38:16.630Z,70720
2017-05-21T14:39:30.708Z,85280
2017-05-21T14:40:46.267Z,58976
2017-05-21T14:42:00.434Z,77632
2017-05-21T14:43:15.960Z,67264
2017-05-21T14:44:31.010Z,74784
2017-05-21T14:45:46.605Z,70528
2017-05-21T14:47:02.055Z,45024
2017-05-21T14:48:17.498Z,54368
2017-05-21T14:49:32.947Z,67200
2017-05-21T14:50:48.514Z,84672
2017-05-21T14:52:03.908Z,69792
2017-05-21T14:53:19.759Z,64096
2017-05-21T14:54:35.180Z,63584
2017-05-21T14:55:50.846Z,60320
2017-05-21T14:57:06.321Z,41312
2017-05-21T14:58:21.719Z,57696
2017-05-21T14:59:35.837Z,73984
2017-05-21T15:00:51.467Z,67392
2017-05-21T15:02:05.565Z,52704
2017-05-21T15:03:21.073Z,58432
2017-05-21T15:04:36.439Z,71456
2017-05-21T15:05:50.578Z,59072
2017-05-21T15:07:05.173Z,39456
2017-05-21T15:08:20.587Z,23104
2017-05-21T15:09:36.057Z,20128
2017-05-21T15:10:51.454Z,19488
2017-05-21T15:12:04.314Z,18624
2017-05-21T15:13:19.944Z,18304
2017-05-21T15:14:35.397Z,18336
2017-05-21T15:15:50.838Z,18304
2017-05-21T15:17:05.132Z,17600
2017-05-21T15:18:20.518Z,16416
2017-05-21T15:19:36.017Z,15468
2017-05-21T15:20:49.720Z,14900
2017-05-21T15:22:05.329Z,14204
2017-05-21T15:23:20.738Z,13204
2017-05-21T15:24:36.153Z,13052
2017-05-21T15:25:51.533Z,11956
2017-05-21T15:27:07.105Z,10616
2017-05-21T15:28:21.538Z,10004
2017-05-21T15:29:37.157Z,9752
2017-05-21T15:30:51.115Z,10652
2017-05-21T15:32:05.713Z,12736
2017-05-21T15:33:21.130Z,12864
2017-05-21T15:34:36.514Z,12788
2017-05-21T15:35:51.921Z,12584
2017-05-21T15:37:07.302Z,12344
2017-05-21T15:38:22.738Z,12084
2017-05-21T15:39:38.112Z,11832
2017-05-21T15:40:52.103Z,11540
2017-05-21T15:42:06.188Z,11180
2017-05-21T15:43:21.765Z,10820
2017-05-21T15:44:35.863Z,10716
2017-05-21T15:45:48.662Z,10716
2017-05-21T15:47:04.276Z,10828
2017-05-21T15:48:19.846Z,10916
2017-05-21T15:49:35.218Z,10912
2017-05-21T15:50:50.610Z,11120
2017-05-21T15:52:04.669Z,11112
2017-05-21T15:53:19.154Z,10224
2017-05-21T15:54:34.526Z,10588
2017-05-21T15:55:49.940Z,10744
2017-05-21T15:57:05.348Z,10572
2017-05-21T15:58:20.967Z,10272
2017-05-21T15:59:35.062Z,9960
2017-05-21T16:00:50.445Z,9760
2017-05-21T16:02:03.315Z,9688
2017-05-21T16:03:17.676Z,9756
2017-05-21T16:04:33.044Z,10128
2017-05-21T16:05:48.405Z,10016
2017-05-21T16:07:03.947Z,9912
2017-05-21T16:08:19.562Z,9308
2017-05-21T16:09:33.642Z,9524
2017-05-21T16:10:49.053Z,9580
2017-05-21T16:12:04.565Z,9740
2017-05-21T16:13:20.209Z,9600
2017-05-21T16:14:34.200Z,9588
2017-05-21T16:15:48.265Z,9492
2017-05-21T16:17:03.627Z,9340
2017-05-21T16:18:18.262Z,9580
2017-05-21T16:19:33.928Z,9756
2017-05-21T16:20:46.597Z,9236
2017-05-21T16:22:02.017Z,9328
2017-05-21T16:23:17.611Z,9480
2017-05-21T16:24:31.739Z,9424
2017-05-21T16:25:47.089Z,9532
2017-05-21T16:27:02.891Z,9920
2017-05-21T16:28:18.279Z,10132
2017-05-21T16:29:34.007Z,10000
2017-05-21T16:30:49.348Z,10344
2017-05-21T16:32:05.009Z,10428
2017-05-21T16:33:20.418Z,10220
2017-05-21T16:34:34.807Z,10316
2017-05-21T16:35:50.192Z,10248
2017-05-21T16:37:05.231Z,9880
2017-05-21T16:38:20.645Z,9520
2017-05-21T16:39:36.053Z,9344
2017-05-21T16:40:50.117Z,9076
2017-05-21T16:42:05.520Z,8728